Cartier, Canada
Current Conditions -  °F | °C
As of 3:00 AM on Tuesday 21 Oct 2014 (Local Time) from CYSB Reporting Station
Light Rain Light Rain  
Wind Chill: 27°   Ceiling: 1000
Heat Index: 37°   Visibility: 15mi
Dew Point: 36°   Wind: 21mph
Humidity: 93%   Direction: 30°NNE
Pressure: 29.92"   Gusts: 30mph
Location:  46.7°N, 81.55°W
Report Text: CYSB 210700Z 03018G26KT 15SM -RA OVC010 03/02 A2992 RMK SF8 SLP145
Loading
Personal Weather Stations






























Interactive Weather Map
Tropical Storm Tracking
New forecast layout! Learn more

10-Day Weather Forecast

Advertisements
Track Severe Weather on mobile